createdAt,value
2022-09-14T00:00:34.394Z,9.747470
2022-09-14T00:01:34.487Z,9.747404
2022-09-14T00:02:34.515Z,9.747394
2022-09-14T00:03:34.373Z,9.747500
2022-09-14T00:04:34.443Z,9.747333
2022-09-14T00:05:34.359Z,9.747407
2022-09-14T00:06:34.372Z,9.747494
2022-09-14T00:07:34.342Z,9.747538
2022-09-14T00:08:34.327Z,9.747590
2022-09-14T00:09:34.349Z,9.747613
2022-09-14T00:10:34.320Z,9.747438
2022-09-14T00:11:34.310Z,9.747325
2022-09-14T00:12:34.301Z,9.747309
2022-09-14T00:13:34.289Z,9.747402
2022-09-14T00:14:34.318Z,9.747380
2022-09-14T00:15:34.302Z,9.747454
2022-09-14T00:16:34.342Z,9.747499
2022-09-14T00:17:34.257Z,9.747397
2022-09-14T00:18:34.249Z,9.747368
2022-09-14T00:19:34.272Z,9.747528
2022-09-14T00:20:34.246Z,9.747574
2022-09-14T00:21:34.220Z,9.747483
2022-09-14T00:22:34.217Z,9.747454
2022-09-14T00:23:34.208Z,9.747539
2022-09-14T00:24:34.266Z,9.747395
2022-09-14T00:25:34.215Z,9.747326
2022-09-14T00:26:34.190Z,9.747500
2022-09-14T00:27:34.179Z,9.747381
2022-09-14T00:28:34.173Z,9.747482
2022-09-14T00:29:34.167Z,9.747453
2022-09-14T00:30:34.183Z,9.747643
2022-09-14T00:31:34.179Z,9.747419
2022-09-14T00:32:34.162Z,9.747484
2022-09-14T00:33:34.131Z,9.747524
2022-09-14T00:34:34.122Z,9.747611
2022-09-14T00:35:34.175Z,9.747398
2022-09-14T00:36:34.128Z,9.747372
2022-09-14T00:37:34.107Z,9.747471
2022-09-14T00:38:34.093Z,9.747402
2022-09-14T00:39:34.090Z,9.747390
2022-09-14T00:40:34.111Z,9.747370
2022-09-14T00:41:34.109Z,9.747387
2022-09-14T00:42:34.062Z,9.747387
2022-09-14T00:43:34.056Z,9.747414
2022-09-14T00:44:34.043Z,9.747418
2022-09-14T00:45:34.118Z,9.747393
2022-09-14T00:46:34.045Z,9.747432
2022-09-14T00:47:34.024Z,9.747417
2022-09-14T00:48:34.014Z,9.747278
2022-09-14T00:49:34.006Z,9.747345
2022-09-14T00:50:34.064Z,9.747479
2022-09-14T00:51:33.993Z,9.747497
2022-09-14T00:52:33.988Z,9.747515
2022-09-14T00:53:33.994Z,9.747489
2022-09-14T00:54:34.007Z,9.747371
2022-09-14T00:55:33.990Z,9.747485
2022-09-14T00:56:33.956Z,9.747510
2022-09-14T00:57:33.950Z,9.747489
2022-09-14T00:58:33.932Z,9.747373
2022-09-14T00:59:33.939Z,9.747437
2022-09-14T01:00:33.949Z,9.747293
2022-09-14T01:01:33.958Z,9.747292
2022-09-14T01:02:33.970Z,9.747457
2022-09-14T01:03:33.904Z,9.747478
2022-09-14T01:04:33.922Z,9.747519
2022-09-14T01:05:33.920Z,9.747501
2022-09-14T01:06:33.886Z,9.747534
2022-09-14T01:07:33.884Z,9.747532
2022-09-14T01:08:33.862Z,9.747445
2022-09-14T01:09:33.867Z,9.747494
2022-09-14T01:10:33.878Z,9.747487
2022-09-14T01:11:33.846Z,9.747525
2022-09-14T01:12:33.837Z,9.747546
2022-09-14T01:13:33.863Z,9.747444
2022-09-14T01:14:33.833Z,9.747396
2022-09-14T01:15:33.838Z,9.747447
2022-09-14T01:16:33.913Z,9.747417
2022-09-14T01:17:33.799Z,9.747437
2022-09-14T01:18:33.786Z,9.747527
2022-09-14T01:19:33.778Z,9.747297
2022-09-14T01:20:33.834Z,9.747402
2022-09-14T01:21:33.762Z,9.747532
2022-09-14T01:22:33.760Z,9.747451
2022-09-14T01:23:33.753Z,9.747457
2022-09-14T01:24:33.738Z,9.747466
2022-09-14T01:25:33.762Z,9.747598
2022-09-14T01:26:33.727Z,9.747563
2022-09-14T01:27:33.733Z,9.747398
2022-09-14T01:28:33.707Z,9.747410
2022-09-14T01:29:33.696Z,9.747351
2022-09-14T01:30:33.717Z,9.747365
2022-09-14T01:31:33.759Z,9.747475
2022-09-14T01:32:33.712Z,9.747360
2022-09-14T01:33:33.668Z,9.747423
2022-09-14T01:34:33.658Z,9.747407
2022-09-14T01:35:33.677Z,9.747423
2022-09-14T01:36:33.655Z,9.747374
2022-09-14T01:37:33.636Z,9.747399
2022-09-14T01:38:33.633Z,9.747396
2022-09-14T01:39:33.636Z,9.747395
2022-09-14T01:40:33.692Z,9.747435
2022-09-14T01:41:33.622Z,9.747365
2022-09-14T01:42:33.603Z,9.747305
2022-09-14T01:43:36.706Z,9.747346
2022-09-14T01:44:34.621Z,9.747396
2022-09-14T01:45:33.642Z,9.747356
2022-09-14T01:46:33.573Z,9.747426
2022-09-14T01:47:33.564Z,9.747387
2022-09-14T01:48:33.555Z,9.747453
2022-09-14T01:49:34.591Z,9.747391
2022-09-14T01:50:33.530Z,9.747385
2022-09-14T01:51:34.538Z,9.747359
2022-09-14T01:52:33.525Z,9.747458
2022-09-14T01:53:33.521Z,9.747459
2022-09-14T01:54:33.522Z,9.747375
2022-09-14T01:55:33.535Z,9.747384
2022-09-14T01:56:33.497Z,9.747385
2022-09-14T01:57:34.492Z,9.747463
2022-09-14T01:58:33.503Z,9.747454
2022-09-14T01:59:33.473Z,9.747446
2022-09-14T02:00:33.580Z,9.747333
2022-09-14T02:01:33.461Z,9.747345
2022-09-14T02:02:33.542Z,9.747394
2022-09-14T02:03:33.441Z,9.747465
2022-09-14T02:04:33.503Z,9.747505
2022-09-14T02:05:33.433Z,9.747430
2022-09-14T02:06:33.423Z,9.747366
2022-09-14T02:07:33.416Z,9.747440
2022-09-14T02:08:33.407Z,9.747429
2022-09-14T02:09:33.454Z,9.747456
2022-09-14T02:10:33.390Z,9.747369
2022-09-14T02:11:33.385Z,9.747436
2022-09-14T02:12:33.381Z,9.747481
2022-09-14T02:13:33.369Z,9.747424
2022-09-14T02:14:33.381Z,9.747403
2022-09-14T02:15:33.349Z,9.747400
2022-09-14T02:16:33.371Z,9.747385
2022-09-14T02:17:33.342Z,9.747410
2022-09-14T02:18:33.323Z,9.747489
2022-09-14T02:19:33.380Z,9.747355
2022-09-14T02:20:33.477Z,9.747286
2022-09-14T02:21:33.340Z,9.747254
2022-09-14T02:22:33.352Z,9.747396
2022-09-14T02:23:33.287Z,9.747319
2022-09-14T02:24:33.334Z,9.747268
2022-09-14T02:25:33.279Z,9.747516
2022-09-14T02:26:33.277Z,9.747393
2022-09-14T02:27:33.287Z,9.747395
2022-09-14T02:28:33.252Z,9.747355
2022-09-14T02:29:33.269Z,9.747427
2022-09-14T02:30:33.239Z,9.747405
2022-09-14T02:31:33.288Z,9.747288
2022-09-14T02:32:33.286Z,9.747370
2022-09-14T02:33:33.215Z,9.747396
2022-09-14T02:34:33.227Z,9.747385
2022-09-14T02:35:34.199Z,9.747369
2022-09-14T02:36:33.193Z,9.747372
2022-09-14T02:37:33.178Z,9.747362
2022-09-14T02:38:33.204Z,9.747271
2022-09-14T02:39:33.193Z,9.747453
2022-09-14T02:40:33.205Z,9.747274
2022-09-14T02:41:33.182Z,9.747376
2022-09-14T02:42:33.138Z,9.747265
2022-09-14T02:43:33.132Z,9.747384
2022-09-14T02:44:33.190Z,9.747462
2022-09-14T02:45:33.117Z,9.747390
2022-09-14T02:46:33.176Z,9.747317
2022-09-14T02:47:33.097Z,9.747334
2022-09-14T02:48:33.088Z,9.747295
2022-09-14T02:49:33.151Z,9.747419
2022-09-14T02:50:33.082Z,9.747420
2022-09-14T02:51:33.068Z,9.747495
2022-09-14T02:52:33.064Z,9.747509
2022-09-14T02:53:33.125Z,9.747391
2022-09-14T02:54:33.049Z,9.747489
2022-09-14T02:55:33.061Z,9.747419
2022-09-14T02:56:33.062Z,9.747332
2022-09-14T02:57:33.062Z,9.747306
2022-09-14T02:58:34.012Z,9.747376
2022-09-14T02:59:33.001Z,9.747318
2022-09-14T03:00:33.055Z,9.747353
2022-09-14T03:01:33.039Z,9.747579
2022-09-14T03:02:33.016Z,9.747444
2022-09-14T03:03:35.616Z,9.747477
2022-09-14T03:04:34.055Z,9.747514
2022-09-14T03:05:32.963Z,9.747196
2022-09-14T03:06:32.946Z,9.747063
2022-09-14T03:07:32.937Z,9.747322
2022-09-14T03:08:32.937Z,9.747284
2022-09-14T03:09:33.256Z,9.747253
2022-09-14T03:10:32.920Z,9.747245
2022-09-14T03:11:32.914Z,9.747428
2022-09-14T03:12:32.896Z,9.747498
2022-09-14T03:13:32.889Z,9.747367
2022-09-14T03:14:32.916Z,9.747505
2022-09-14T03:15:32.877Z,9.747336
2022-09-14T03:16:32.919Z,9.747113
2022-09-14T03:17:32.864Z,9.747212
2022-09-14T03:18:32.856Z,9.747138
2022-09-14T03:19:32.875Z,9.747246
2022-09-14T03:20:32.905Z,9.747287
2022-09-14T03:21:32.827Z,9.747133
2022-09-14T03:22:32.823Z,9.747161
2022-09-14T03:23:32.814Z,9.747155
2022-09-14T03:24:32.807Z,9.747242
2022-09-14T03:25:32.830Z,9.747123
2022-09-14T03:26:32.787Z,9.747139
2022-09-14T03:27:32.787Z,9.747153
2022-09-14T03:28:32.777Z,9.747147
2022-09-14T03:29:32.765Z,9.747189
2022-09-14T03:30:32.786Z,9.747231
2022-09-14T03:31:32.829Z,9.747106
2022-09-14T03:32:32.737Z,9.747108
2022-09-14T03:33:32.732Z,9.747316
2022-09-14T03:34:32.734Z,9.747535
2022-09-14T03:35:32.747Z,9.747390
2022-09-14T03:36:32.759Z,9.747379
2022-09-14T03:37:33.700Z,9.747424
2022-09-14T03:38:32.695Z,9.747369
2022-09-14T03:39:32.687Z,9.747389
2022-09-14T03:40:32.746Z,9.747398
2022-09-14T03:41:32.704Z,9.747381
2022-09-14T03:42:32.663Z,9.747275
2022-09-14T03:43:32.649Z,9.747396
2022-09-14T03:44:32.648Z,9.747597
2022-09-14T03:45:32.668Z,9.747578
2022-09-14T03:46:32.677Z,9.747420
2022-09-14T03:47:32.626Z,9.747490
2022-09-14T03:48:32.636Z,9.747446
2022-09-14T03:49:32.613Z,9.747472
2022-09-14T03:50:32.630Z,9.747489
2022-09-14T03:51:32.616Z,9.747397
2022-09-14T03:52:32.605Z,9.747292
2022-09-14T03:53:32.581Z,9.747277
2022-09-14T03:54:32.571Z,9.747431
2022-09-14T03:55:32.615Z,9.747412
2022-09-14T03:56:32.555Z,9.747292
2022-09-14T03:57:32.550Z,9.747192
2022-09-14T03:58:32.543Z,9.747374
2022-09-14T03:59:32.534Z,9.747351
2022-09-14T04:00:32.564Z,9.747376
2022-09-14T04:01:32.629Z,9.747389
2022-09-14T04:02:32.617Z,9.747268
2022-09-14T04:03:32.502Z,9.747281
2022-09-14T04:04:32.493Z,9.747333
2022-09-14T04:05:32.513Z,9.747402
2022-09-14T04:06:32.475Z,9.747438
2022-09-14T04:07:32.470Z,9.747374
2022-09-14T04:08:32.460Z,9.747377
2022-09-14T04:09:32.491Z,9.747426
2022-09-14T04:10:32.469Z,9.747406
2022-09-14T04:11:32.445Z,9.747392
2022-09-14T04:12:32.433Z,9.747355
2022-09-14T04:13:32.421Z,9.747384
2022-09-14T04:14:32.423Z,9.747381
2022-09-14T04:15:32.440Z,9.747390
2022-09-14T04:16:32.582Z,9.747455
2022-09-14T04:17:32.391Z,9.747354
2022-09-14T04:18:32.387Z,9.747479
2022-09-14T04:19:32.383Z,9.747350
2022-09-14T04:20:32.413Z,9.747337
2022-09-14T04:21:32.455Z,9.747334
2022-09-14T04:22:32.353Z,9.747378
2022-09-14T04:23:32.345Z,9.747352
2022-09-14T04:24:32.399Z,9.747374
2022-09-14T04:25:32.783Z,9.747335
2022-09-14T04:26:32.444Z,9.747433
2022-09-14T04:27:32.324Z,9.747364
2022-09-14T04:28:32.323Z,9.747434
2022-09-14T04:29:32.371Z,9.747396
2022-09-14T04:30:32.330Z,9.747396
2022-09-14T04:31:32.363Z,9.747550
2022-09-14T04:32:34.507Z,9.747548
2022-09-14T04:33:33.269Z,9.747415
2022-09-14T04:34:32.262Z,9.747286
2022-09-14T04:35:32.258Z,9.747411
2022-09-14T04:36:32.289Z,9.747398
2022-09-14T04:37:32.263Z,9.747420
2022-09-14T04:38:32.233Z,9.747419
2022-09-14T04:39:32.230Z,9.747409
2022-09-14T04:40:32.342Z,9.747421
2022-09-14T04:41:32.211Z,9.747409
2022-09-14T04:42:32.206Z,9.747385
2022-09-14T04:43:32.228Z,9.747425
2022-09-14T04:44:32.196Z,9.747419
2022-09-14T04:45:32.188Z,9.747390
2022-09-14T04:46:32.311Z,9.747360
2022-09-14T04:47:32.222Z,9.747240
2022-09-14T04:48:32.158Z,9.747396
2022-09-14T04:49:32.153Z,9.747443
2022-09-14T04:50:32.141Z,9.747449
2022-09-14T04:51:32.158Z,9.747454
2022-09-14T04:52:32.125Z,9.747463
2022-09-14T04:53:32.121Z,9.747443
2022-09-14T04:54:32.109Z,9.747373
2022-09-14T04:55:32.098Z,9.747367
2022-09-14T04:56:32.137Z,9.747396
2022-09-14T04:57:32.096Z,9.747500
2022-09-14T04:58:32.106Z,9.747470
2022-09-14T04:59:32.071Z,9.747401
2022-09-14T05:00:32.066Z,9.747494
2022-09-14T05:01:32.135Z,9.747442
2022-09-14T05:02:32.077Z,9.747457
2022-09-14T05:03:32.055Z,9.747436
2022-09-14T05:04:32.043Z,9.747517
2022-09-14T05:05:32.068Z,9.747453
2022-09-14T05:06:32.050Z,9.747460
2022-09-14T05:07:32.025Z,9.747450
2022-09-14T05:08:32.024Z,9.747540
2022-09-14T05:09:32.036Z,9.747507
2022-09-14T05:10:32.017Z,9.747568
2022-09-14T05:11:32.015Z,9.747521
2022-09-14T05:12:31.966Z,9.747466
2022-09-14T05:13:31.963Z,9.747486
2022-09-14T05:14:31.958Z,9.747477
2022-09-14T05:15:32.055Z,9.747507
2022-09-14T05:16:31.963Z,9.747425
2022-09-14T05:17:31.928Z,9.747407
2022-09-14T05:18:31.926Z,9.747454
2022-09-14T05:19:31.912Z,9.747503
2022-09-14T05:20:31.903Z,9.747443
2022-09-14T05:21:31.923Z,9.747535
2022-09-14T05:22:31.908Z,9.747479
2022-09-14T05:23:31.944Z,9.747411
2022-09-14T05:24:31.886Z,9.747535
2022-09-14T05:25:31.881Z,9.747663
2022-09-14T05:26:31.905Z,9.747716
2022-09-14T05:27:31.853Z,9.747610
2022-09-14T05:28:31.843Z,9.747572
2022-09-14T05:29:31.895Z,9.747622
2022-09-14T05:30:31.826Z,9.747583
2022-09-14T05:31:31.907Z,9.747485
2022-09-14T05:32:31.840Z,9.747434
2022-09-14T05:33:31.803Z,9.747393
2022-09-14T05:34:31.806Z,9.747347
2022-09-14T05:35:31.819Z,9.747334
2022-09-14T05:36:31.816Z,9.747290
2022-09-14T05:37:31.770Z,9.747322
2022-09-14T05:38:31.769Z,9.747273
2022-09-14T05:39:31.769Z,9.747347
2022-09-14T05:40:31.852Z,9.747357
2022-09-14T05:41:31.782Z,9.747283
2022-09-14T05:42:31.741Z,9.747419
2022-09-14T05:43:31.737Z,9.747397
2022-09-14T05:44:31.741Z,9.747402
2022-09-14T05:45:31.720Z,9.747531
2022-09-14T05:46:31.777Z,9.747416
2022-09-14T05:47:34.801Z,9.747136
2022-09-14T05:48:32.691Z,9.747378
2022-09-14T05:49:31.707Z,9.747383
2022-09-14T05:50:31.686Z,9.747476
2022-09-14T05:51:31.671Z,9.747348
2022-09-14T05:52:31.682Z,9.747427
2022-09-14T05:53:31.663Z,9.747479
2022-09-14T05:54:31.640Z,9.747381
2022-09-14T05:55:31.626Z,9.747449
2022-09-14T05:56:31.732Z,9.747460
2022-09-14T05:57:31.732Z,9.747449
2022-09-14T05:58:31.602Z,9.747592
2022-09-14T05:59:31.605Z,9.747513
2022-09-14T06:00:32.596Z,9.747495
2022-09-14T06:01:31.631Z,9.747575
2022-09-14T06:02:31.727Z,9.747544
2022-09-14T06:03:31.573Z,9.747540
2022-09-14T06:04:31.562Z,9.747437
2022-09-14T06:05:31.620Z,9.747429
2022-09-14T06:06:31.548Z,9.747600
2022-09-14T06:07:31.572Z,9.747634
2022-09-14T06:08:31.532Z,9.747550
2022-09-14T06:09:33.297Z,9.747375
2022-09-14T06:10:32.517Z,9.747534
2022-09-14T06:11:31.513Z,9.747519
2022-09-14T06:12:31.550Z,9.747521
2022-09-14T06:13:31.515Z,9.747526
2022-09-14T06:14:31.491Z,9.747480
2022-09-14T06:15:31.492Z,9.747531
2022-09-14T06:16:31.472Z,9.747570
2022-09-14T06:17:31.529Z,9.747499
2022-09-14T06:18:31.462Z,9.747586
2022-09-14T06:19:31.442Z,9.747492
2022-09-14T06:20:31.439Z,9.747532
2022-09-14T06:21:31.430Z,9.747497
2022-09-14T06:22:31.487Z,9.747479
2022-09-14T06:23:31.434Z,9.747332
2022-09-14T06:24:31.410Z,9.747461
2022-09-14T06:25:31.406Z,9.747614
2022-09-14T06:26:31.395Z,9.747547
2022-09-14T06:27:31.412Z,9.747660
2022-09-14T06:28:31.379Z,9.747564
2022-09-14T06:29:31.464Z,9.747391
2022-09-14T06:30:31.361Z,9.747514
2022-09-14T06:31:31.344Z,9.747499
2022-09-14T06:32:32.375Z,9.747448
2022-09-14T06:33:31.416Z,9.747503
2022-09-14T06:34:31.337Z,9.747513
2022-09-14T06:35:31.322Z,9.747541
2022-09-14T06:36:31.313Z,9.747448
2022-09-14T06:37:31.332Z,9.747530
2022-09-14T06:38:31.298Z,9.747516
2022-09-14T06:39:31.292Z,9.747614
2022-09-14T06:40:31.320Z,9.747415
2022-09-14T06:41:31.278Z,9.747270
2022-09-14T06:42:31.289Z,9.747322
2022-09-14T06:43:31.267Z,9.747382
2022-09-14T06:44:31.260Z,9.747356
2022-09-14T06:45:31.262Z,9.747294
2022-09-14T06:46:31.237Z,9.747455
2022-09-14T06:47:31.266Z,9.747433
2022-09-14T06:48:31.273Z,9.747500
2022-09-14T06:49:31.218Z,9.747371
2022-09-14T06:50:31.204Z,9.747427
2022-09-14T06:51:31.196Z,9.747520
2022-09-14T06:52:33.791Z,9.747493
2022-09-14T06:53:32.184Z,9.747535
2022-09-14T06:54:31.175Z,9.747516
2022-09-14T06:55:31.171Z,9.747434
2022-09-14T06:56:31.213Z,9.747432
2022-09-14T06:57:31.150Z,9.747658
2022-09-14T06:58:31.149Z,9.747431
2022-09-14T06:59:31.140Z,9.747488
2022-09-14T07:00:31.137Z,9.747390
2022-09-14T07:01:31.150Z,9.747375
2022-09-14T07:02:31.154Z,9.747369
2022-09-14T07:03:31.103Z,9.747247
2022-09-14T07:04:31.095Z,9.747319
2022-09-14T07:05:31.099Z,9.747274
2022-09-14T07:06:31.159Z,9.747358
2022-09-14T07:07:31.089Z,9.747440
2022-09-14T07:08:31.073Z,9.747345
2022-09-14T07:09:31.059Z,9.747451
2022-09-14T07:10:31.052Z,9.747440
2022-09-14T07:11:31.073Z,9.747512
2022-09-14T07:12:31.041Z,9.747566
2022-09-14T07:13:31.033Z,9.747501
2022-09-14T07:14:32.485Z,9.747404
2022-09-14T07:15:32.013Z,9.747470
2022-09-14T07:16:31.029Z,9.747552
2022-09-14T07:17:30.991Z,9.747478
2022-09-14T07:18:30.983Z,9.747477
2022-09-14T07:19:30.968Z,9.747509
2022-09-14T07:20:31.991Z,9.747522
2022-09-14T07:21:30.996Z,9.747397
2022-09-14T07:22:30.957Z,9.747563
2022-09-14T07:23:30.944Z,9.747494
2022-09-14T07:24:30.934Z,9.747430
2022-09-14T07:25:30.930Z,9.747473
2022-09-14T07:26:30.948Z,9.747512
2022-09-14T07:27:30.919Z,9.747527
2022-09-14T07:28:32.991Z,9.747507
2022-09-14T07:29:30.904Z,9.747643
2022-09-14T07:30:30.926Z,9.747499
2022-09-14T07:31:30.957Z,9.747501
2022-09-14T07:32:30.880Z,9.747447
2022-09-14T07:33:30.869Z,9.747495
2022-09-14T07:34:30.867Z,9.747554
2022-09-14T07:35:30.847Z,9.747464
2022-09-14T07:36:34.574Z,9.747525
2022-09-14T07:37:31.828Z,9.747556
2022-09-14T07:38:51.092Z,9.747489
2022-09-14T07:39:32.815Z,9.747481
2022-09-14T07:40:30.836Z,9.747477
2022-09-14T07:41:30.803Z,9.747466
2022-09-14T07:42:30.813Z,9.747550
2022-09-14T07:43:30.783Z,9.747510
2022-09-14T07:44:30.776Z,9.747516
2022-09-14T07:45:30.804Z,9.747530
2022-09-14T07:46:30.782Z,9.747647
2022-09-14T07:47:30.748Z,9.747608
2022-09-14T07:48:30.748Z,9.747581
2022-09-14T07:49:30.750Z,9.747375
2022-09-14T07:50:30.731Z,9.747493
2022-09-14T07:51:30.718Z,9.747480
2022-09-14T07:52:30.730Z,9.747519
2022-09-14T07:53:30.719Z,9.747481
2022-09-14T07:54:30.695Z,9.747540
2022-09-14T07:55:30.685Z,9.747522
2022-09-14T07:56:30.700Z,9.747450
2022-09-14T07:57:54.624Z,9.747520
2022-09-14T07:58:32.662Z,9.747518
2022-09-14T07:59:36.162Z,9.747491
2022-09-14T08:00:32.653Z,9.747524
2022-09-14T08:01:30.743Z,9.747458
2022-09-14T08:02:30.695Z,9.747475
2022-09-14T08:03:30.635Z,9.747509
2022-09-14T08:04:30.630Z,9.747564
2022-09-14T08:05:30.610Z,9.747446
2022-09-14T08:06:30.600Z,9.747551
2022-09-14T08:07:30.640Z,9.747504
2022-09-14T08:08:30.587Z,9.747550
2022-09-14T08:09:30.575Z,9.747534
2022-09-14T08:10:30.570Z,9.747490
2022-09-14T08:11:30.571Z,9.747537
2022-09-14T08:12:30.584Z,9.747602
2022-09-14T08:13:30.554Z,9.747484
2022-09-14T08:14:30.544Z,9.747504
2022-09-14T08:15:30.532Z,9.747538
2022-09-14T08:16:30.580Z,9.747447
2022-09-14T08:17:30.547Z,9.747427
2022-09-14T08:18:30.512Z,9.747394
2022-09-14T08:19:30.503Z,9.747405
2022-09-14T08:20:30.491Z,9.747338
2022-09-14T08:21:30.486Z,9.747330
2022-09-14T08:22:30.501Z,9.747369
2022-09-14T08:23:30.470Z,9.747399
2022-09-14T08:24:30.520Z,9.747367
2022-09-14T08:25:30.453Z,9.747348
2022-09-14T08:26:30.447Z,9.747353
2022-09-14T08:27:30.468Z,9.747320
2022-09-14T08:28:30.427Z,9.747298
2022-09-14T08:29:30.424Z,9.747392
2022-09-14T08:30:30.417Z,9.747385
2022-09-14T08:31:30.434Z,9.747313
2022-09-14T08:32:30.426Z,9.747290
2022-09-14T08:33:30.392Z,9.747294
2022-09-14T08:34:30.388Z,9.747321
2022-09-14T08:35:53.995Z,9.747373
2022-09-14T08:36:32.368Z,9.747366
2022-09-14T08:37:30.383Z,9.747346
2022-09-14T08:38:30.346Z,9.747571
2022-09-14T08:39:30.340Z,9.747453
2022-09-14T08:40:30.363Z,9.747289
2022-09-14T08:41:30.331Z,9.747396
2022-09-14T08:42:30.346Z,9.747396
2022-09-14T08:43:30.308Z,9.747360
2022-09-14T08:44:30.302Z,9.747438
2022-09-14T08:45:30.386Z,9.747427
2022-09-14T08:46:30.301Z,9.747463
2022-09-14T08:47:30.309Z,9.747421
2022-09-14T08:48:30.274Z,9.747383
2022-09-14T08:49:30.262Z,9.747396
2022-09-14T08:50:30.251Z,9.747381
2022-09-14T08:51:30.248Z,9.747435
2022-09-14T08:52:30.276Z,9.747408
2022-09-14T08:53:30.231Z,9.747447
2022-09-14T08:54:30.251Z,9.747511
2022-09-14T08:55:30.223Z,9.747519
2022-09-14T08:56:30.210Z,9.747610
2022-09-14T08:57:30.235Z,9.747614
2022-09-14T08:58:30.200Z,9.747475
2022-09-14T08:59:30.191Z,9.747339
2022-09-14T09:00:30.312Z,9.747397
2022-09-14T09:01:30.171Z,9.747360
2022-09-14T09:02:30.184Z,9.747371
2022-09-14T09:03:30.224Z,9.747334
2022-09-14T09:04:30.149Z,9.747507
2022-09-14T09:05:30.142Z,9.747424
2022-09-14T09:06:30.135Z,9.747202
2022-09-14T09:07:30.160Z,9.747024
2022-09-14T09:08:30.115Z,9.747140
2022-09-14T09:09:30.111Z,9.747356
2022-09-14T09:10:30.107Z,9.747413
2022-09-14T09:11:30.089Z,9.747473
2022-09-14T09:12:30.136Z,9.747497
2022-09-14T09:13:30.077Z,9.747433
2022-09-14T09:14:30.079Z,9.747376
2022-09-14T09:15:30.067Z,9.747391
2022-09-14T09:16:30.084Z,9.747435
2022-09-14T09:17:30.080Z,9.747526
2022-09-14T09:18:30.037Z,9.747543
2022-09-14T09:19:30.038Z,9.747388
2022-09-14T09:20:30.023Z,9.747338
2022-09-14T09:21:30.010Z,9.747455
2022-09-14T09:22:30.026Z,9.747556
2022-09-14T09:23:29.996Z,9.747558
2022-09-14T09:24:31.097Z,9.747343
2022-09-14T09:25:29.974Z,9.747215
2022-09-14T09:26:29.983Z,9.747235
2022-09-14T09:27:29.995Z,9.747415
2022-09-14T09:28:29.960Z,9.747415
2022-09-14T09:29:29.949Z,9.747497
2022-09-14T09:30:29.946Z,9.747235
2022-09-14T09:31:29.965Z,9.747402
2022-09-14T09:32:29.966Z,9.747411
2022-09-14T09:33:29.930Z,9.747418
2022-09-14T09:34:29.929Z,9.747475
2022-09-14T09:35:29.961Z,9.747339
2022-09-14T09:36:29.887Z,9.747494
2022-09-14T09:37:30.935Z,9.747432
2022-09-14T09:38:29.887Z,9.747396
2022-09-14T09:39:29.899Z,9.747380
2022-09-14T09:40:29.990Z,9.747370
2022-09-14T09:41:29.854Z,9.747449
2022-09-14T09:42:29.895Z,9.747389
2022-09-14T09:43:48.442Z,9.747355
2022-09-14T09:44:31.830Z,9.747409
2022-09-14T09:45:29.844Z,9.747345
2022-09-14T09:46:29.847Z,9.747235
2022-09-14T09:47:29.813Z,9.747277
2022-09-14T09:48:29.833Z,9.747355
2022-09-14T09:49:29.806Z,9.747436
2022-09-14T09:50:29.772Z,9.747491
2022-09-14T09:51:30.783Z,9.747458
2022-09-14T09:52:29.775Z,9.747377
2022-09-14T09:53:29.787Z,9.747452
2022-09-14T09:54:29.762Z,9.747476
2022-09-14T09:55:29.749Z,9.747468
2022-09-14T09:56:29.741Z,9.747401
2022-09-14T09:57:29.737Z,9.747536
2022-09-14T09:58:29.754Z,9.747496
2022-09-14T09:59:29.714Z,9.747464
2022-09-14T10:00:29.721Z,9.747392
2022-09-14T10:01:29.894Z,9.747426
2022-09-14T10:02:29.742Z,9.747334
2022-09-14T10:03:29.735Z,9.747407
2022-09-14T10:04:29.688Z,9.747439
2022-09-14T10:05:29.669Z,9.747451
2022-09-14T10:06:29.664Z,9.747460
2022-09-14T10:07:29.659Z,9.747475
2022-09-14T10:08:29.666Z,9.747468
2022-09-14T10:09:29.637Z,9.747350
2022-09-14T10:10:29.633Z,9.747356
2022-09-14T10:11:29.616Z,9.747505
2022-09-14T10:12:29.621Z,9.747455
2022-09-14T10:13:29.644Z,9.747438
2022-09-14T10:14:29.591Z,9.747499
2022-09-14T10:15:29.582Z,9.747375
2022-09-14T10:16:29.698Z,9.747390
2022-09-14T10:17:29.583Z,9.747418
2022-09-14T10:18:29.591Z,9.747404
2022-09-14T10:19:29.558Z,9.747284
2022-09-14T10:20:29.552Z,9.747345
2022-09-14T10:21:29.553Z,9.747406
2022-09-14T10:22:29.534Z,9.747309
2022-09-14T10:23:29.552Z,9.747413
2022-09-14T10:24:29.519Z,9.747373
2022-09-14T10:25:29.523Z,9.747363
2022-09-14T10:26:29.492Z,9.747437
2022-09-14T10:27:33.255Z,9.747464
2022-09-14T10:28:30.517Z,9.747459
2022-09-14T10:29:29.486Z,9.747367
2022-09-14T10:30:29.478Z,9.747388
2022-09-14T10:31:29.512Z,9.747417
2022-09-14T10:32:29.466Z,9.747419
2022-09-14T10:33:29.481Z,9.747500
2022-09-14T10:34:29.443Z,9.747489
2022-09-14T10:35:29.456Z,9.747444
2022-09-14T10:36:29.429Z,9.747540
2022-09-14T10:37:29.425Z,9.747472
2022-09-14T10:38:29.442Z,9.747385
2022-09-14T10:39:29.414Z,9.747274
2022-09-14T10:40:29.457Z,9.747457
2022-09-14T10:41:29.396Z,9.747361
2022-09-14T10:42:29.382Z,9.747390
2022-09-14T10:43:31.308Z,9.747408
2022-09-14T10:44:29.369Z,9.747379
2022-09-14T10:45:29.364Z,9.747334
2022-09-14T10:46:29.380Z,9.747266
2022-09-14T10:47:29.343Z,9.747236
2022-09-14T10:48:29.367Z,9.747345
2022-09-14T10:49:29.360Z,9.747315
2022-09-14T10:50:29.325Z,9.747293
2022-09-14T10:51:29.313Z,9.747355
2022-09-14T10:52:29.305Z,9.747398
2022-09-14T10:53:29.413Z,9.747393
2022-09-14T10:54:29.282Z,9.747434
2022-09-14T10:55:29.284Z,9.747518
2022-09-14T10:56:29.276Z,9.747351
2022-09-14T10:57:29.264Z,9.747300
2022-09-14T10:58:29.294Z,9.747363
2022-09-14T10:59:29.247Z,9.747419
2022-09-14T11:00:29.238Z,9.747571
2022-09-14T11:01:29.272Z,9.747445
2022-09-14T11:02:29.376Z,9.747379
2022-09-14T11:03:29.241Z,9.747359
2022-09-14T11:04:29.213Z,9.747389
2022-09-14T11:05:29.194Z,9.747367
2022-09-14T11:06:29.196Z,9.747339
2022-09-14T11:07:29.186Z,9.747401
2022-09-14T11:08:29.222Z,9.747368
2022-09-14T11:09:29.187Z,9.747353
2022-09-14T11:10:29.161Z,9.747394
2022-09-14T11:11:29.146Z,9.747315
2022-09-14T11:12:29.147Z,9.747389
2022-09-14T11:13:29.161Z,9.747398
2022-09-14T11:14:29.132Z,9.747334
2022-09-14T11:15:29.125Z,9.747297
2022-09-14T11:16:29.183Z,9.747277
2022-09-14T11:17:29.108Z,9.747293
2022-09-14T11:18:29.140Z,9.747413
2022-09-14T11:19:29.092Z,9.747454
2022-09-14T11:20:29.083Z,9.747602
2022-09-14T11:21:29.082Z,9.747487
2022-09-14T11:22:29.070Z,9.747518
2022-09-14T11:23:29.090Z,9.747455
2022-09-14T11:24:29.083Z,9.747303
2022-09-14T11:25:29.048Z,9.747391
2022-09-14T11:26:29.042Z,9.747353
2022-09-14T11:27:29.029Z,9.747296
2022-09-14T11:28:29.024Z,9.747225
2022-09-14T11:29:29.052Z,9.747290
2022-09-14T11:30:29.012Z,9.747270
2022-09-14T11:31:29.051Z,9.747243
2022-09-14T11:32:28.991Z,9.747265
2022-09-14T11:33:31.244Z,9.747376
2022-09-14T11:34:30.001Z,9.747200
2022-09-14T11:35:28.969Z,9.747189
2022-09-14T11:36:28.964Z,9.747274
2022-09-14T11:37:28.954Z,9.747232
2022-09-14T11:38:28.950Z,9.747266
2022-09-14T11:39:28.960Z,9.747227
2022-09-14T11:40:29.078Z,9.747142
2022-09-14T11:41:28.926Z,9.747171
2022-09-14T11:42:28.911Z,9.747295
2022-09-14T11:43:28.942Z,9.747314
2022-09-14T11:44:28.943Z,9.747389